航空気象通報

ウインドサーファーのための航空気象通報による風予報です。

7/31-8/1の航空気象通報(国内、海外)

2009年07月31日 21時57分11秒 | TAF
羽田空港
TAF RJTT 310837Z 3109/0112 07014KT 9999 FEW010 BKN015
BECMG 3110/3112 05012KT
TEMPO 3115/3121 FEW005 BKN009
BECMG 0103/0106 08008KT
日本時間31日18-19時:070度から14ノットの風
19-21時:風が変化
21時-1日12時:050度から12ノットの風
12-15時:風が変化
15-21時:080度から8ノットの風


那覇空港
TAF ROAH 310841Z 3109/0112 07008KT 9999 FEW015
日本時間31日18時-1日21時:070度から8ノットの風


マウイのカフルイ空港
PHOG 311120Z 3112/0112 05010KT P6SM FEW025 SCT050
TEMPO 3112/3114 VRB06KT
FM312000 06018G28KT P6SM FEW035 SCT060
FM010800 05010KT P6SM FEW060
ハワイ時間31日02-10時:050度から10ノットの風
但し、31日02-04時の間:一時、風向不定6ノットの風
10-20時:060度から18ノット、突風28ノット
20時-1日02時:050度から10ノットの風


サイパン空港
PGSN 311120Z 3112/0112 24009KT P6SM VCSH FEW014 SCT030 BKN080
FM312100 22011G18KT P6SM -RA SCT017 BKN060
マリアナ時間31日22時-1日07時:240度から9ノットの風
09-22時:220度から11ノット、突風18ノット
コメント
この記事をはてなブックマークに追加

7/30-31の航空気象通報(国内、海外)

2009年07月30日 22時42分10秒 | TAF
羽田空港
TAF AMD RJTT 301125Z 3011/3112 05016KT 9000 FEW006 BKN009 BKN025
TEMPO 3015/3021 4000 -RA BR FEW005 BKN007
BECMG 3021/3024 FEW008 SCT012 BKN025
日本時間31日00-06時:050度から16ノットの風

但し、31日00-06時の間:一時、

那覇空港
TAF ROAH 300837Z 3009/3112 21008KT 9999 FEW015
TEMPO 3009/3010 FEW010 SCT020 FEW025CB
BECMG 3009/3011 04008KT
日本時間30日18時-31日18時:210度から8ノットの風
18-20時:風が変化
20-21時:040度から8ノットの風


マウイのカフルイ空港
PHOG 301141Z 3012/3112 05008KT P6SM SCT050
FM302000 06017G28KT P6SM FEW035 SCT060
FM310700 05010KT P6SM SCT050
ハワイ時間30日02-10時:050度から8ノットの風
10-21時:060度から17ノット、突風28ノット
21時-31日02時:050度から10ノットの風


サイパン空港
PGSN 301130Z 3012/3112 18006KT P6SM VCSH SCT020 BKN070
FM302200 22010G17KT P6SM VCSH SCT018 BKN050
マリアナ時間30日22時-31日08時:180度から6ノットの風
08-22時:220度から10ノット、突風17ノット

コメント
この記事をはてなブックマークに追加

7/29-30の航空気象通報(国内、海外)

2009年07月29日 23時40分38秒 | TAF
羽田空港
TAF RJTT 290839Z 2909/3012 20015KT 9999 FEW010 SCT030
TEMPO 2909/2913 20017G27KT
TEMPO 2918/2921 SCT005 BKN008
日本時間29日18時-30日21時:200度から15ノットの風
但し、29日18-22時の間:一時、200度から17ノット、突風27ノット

30日03-06時の間:一時、

那覇空港
TAF ROAH 290848Z 2909/3012 36006KT 9999 FEW015
日本時間29日18時-30日21時:360度から6ノットの風


マウイのカフルイ空港
PHOG 291129Z 2912/3012 04012KT P6SM SCT060
FM292100 06020G28KT P6SM FEW040 SCT060
FM300600 04012KT P6SM FEW060
ハワイ時間29日02-11時:040度から12ノットの風
11-20時:060度から20ノット、突風28ノット
20時-30日02時:040度から12ノットの風


サイパン空港
PGSN 291120Z 2912/3012 14011KT P6SM VCSH SCT020 BKN100
TEMPO 2913/2917 -SHRA SCT015CB BKN035
マリアナ時間29日22時-30日22時:140度から11ノットの風

但し、29日23時-30日03時の間:一時、
コメント
この記事をはてなブックマークに追加

7/28-29の航空気象通報(国内、海外)

2009年07月28日 21時26分03秒 | TAF
羽田空港
TAF RJTT 280847Z 2809/2912 20010KT 9999 FEW015 SCT020 BKN030
TEMPO 2813/2818 4000 -SHRA BR
TEMPO 2818/2824 3000 SHRA BR FEW006 BKN009 BKN012
日本時間29日18時-29日21時:200度から10ノットの風

但し、27日22時-28日09時の間:一時、

那覇空港
TAF ROAH 280835Z 2809/2912 18007KT 9999 FEW015
BECMG 2903/2906 33007KT
日本時間28日18時-29日12時:180度から7ノットの風
12-15時:風が変化
15-21時:330度から7ノットの風


マウイのカフルイ空港
PHOG 281132Z 2812/2912 04012KT P6SM VCSH FEW030 SCT050
FM281700 06012G20KT P6SM VCSH SCT035 BKN050
FM282000 06020G30KT P6SM FEW050
FM290600 04014KT P6SM FEW050
ハワイ時間28日02-07時:040度から12ノットの風

07-10時:060度から12ノット、突風20ノット

10-20時:060度から20ノット、突風30ノット
20時-29日02時:040度から14ノットの風


サイパン空港
PGSN 281125Z 2812/2912 12009KT P6SM VCSH SCT018
マリアナ時間28日22時-29日22時:120度から9ノットの風
コメント
この記事をはてなブックマークに追加

7/27-28の航空気象通報(国内、海外)

2009年07月27日 21時20分18秒 | TAF
羽田空港
TAF RJTT 270837Z 2709/2812 18012KT 9999 FEW010 SCT020 BKN030
TEMPO 2709/2712 4000 -SHRA BR
日本時間27日18時-28日21時:180度から12ノットの風

但し、27日18-21時の間:一時、

那覇空港
TAF ROAH 270838Z 2709/2812 21007KT 9999 SCT020
日本時間27日18時-28日21時:210度から7ノットの風


マウイのカフルイ空港
PHOG 271135Z 2712/2812 05008KT P6SM FEW050 SCT180
FM272000 07016G23KT P6SM FEW050 SCT180
FM280800 05010KT P6SM FEW050
ハワイ時間27日02-10時:050度から8ノットの風
10-22時:070度から16ノット、突風23ノット
22時-28日02時:050度から10ノットの風


サイパン空港
PGSN 271120Z 2712/2812 14008KT P6SM VCSH SCT016 SCT120
マリアナ時間27日22時-28日22時:140度から8ノットの風
コメント
この記事をはてなブックマークに追加